Time;durP1;ratioP1;P1;durP2;ratioP2;P2;SDS_P1;SDS_P2;PMS_P1;PMS_P2;Temp;Humidity;BMP_temperature;BMP_pressure;BME280_temperature;BME280_humidity;BME280_pressure;Samples;Min_cycle;Max_cycle;Signal;HPM_P1;HPM_P2
2022/08/20 00:01:40;;;;;;;2.35;1.40;;;;;;;25.23;56.75;100629.06;5075770;28;20049;-72
2022/08/20 00:04:08;;;;;;;2.80;1.50;;;;;;;25.24;56.66;100620.78;5075318;28;20052;-72
2022/08/20 00:06:39;;;;;;;3.00;1.55;;;;;;;25.25;56.73;100624.34;5076740;28;20045;-72
2022/08/20 00:09:06;;;;;;;5.25;1.70;;;;;;;25.26;56.83;100623.31;5076857;28;20045;-72
2022/08/20 00:11:34;;;;;;;3.67;1.70;;;;;;;25.27;56.75;100627.69;5076627;28;20040;-72
2022/08/20 00:14:04;;;;;;;5.68;1.50;;;;;;;25.28;56.71;100626.66;5076593;28;20051;-72
2022/08/20 00:16:35;;;;;;;2.72;1.52;;;;;;;25.28;56.87;100627.53;5075622;28;20052;-72
2022/08/20 00:19:06;;;;;;;2.10;1.45;;;;;;;25.30;56.66;100630.06;5077067;28;20400;-72
2022/08/20 00:21:35;;;;;;;5.13;1.60;;;;;;;25.30;56.76;100630.06;5076624;28;20396;-72
2022/08/20 00:24:03;;;;;;;3.40;1.73;;;;;;;25.30;56.61;100628.19;5077080;28;20045;-71
2022/08/20 00:26:31;;;;;;;2.40;1.83;;;;;;;25.30;56.69;100630.91;5076926;28;20059;-72
2022/08/20 00:28:58;;;;;;;2.20;1.45;;;;;;;25.31;56.74;100632.59;5076918;28;20049;-72
2022/08/20 00:31:27;;;;;;;2.25;1.50;;;;;;;25.31;56.51;100626.31;5076451;28;20138;-72
2022/08/20 00:33:54;;;;;;;2.67;1.52;;;;;;;25.31;56.74;100629.88;5076259;28;20040;-72
2022/08/20 00:36:22;;;;;;;2.28;1.33;;;;;;;25.32;56.59;100639.72;5075078;28;20048;-72
2022/08/20 00:38:59;;;;;;;2.55;1.48;;;;;;;25.33;56.48;100640.56;5076742;28;20049;-72
2022/08/20 00:41:27;;;;;;;3.35;1.50;;;;;;;25.33;56.62;100637.84;5076860;28;20048;-72
2022/08/20 00:44:27;;;;;;;1.90;1.40;;;;;;;25.34;56.72;100636.81;5076617;28;20063;-72
2022/08/20 00:46:54;;;;;;;2.20;1.52;;;;;;;25.34;56.61;100632.25;5064208;28;20095;-72
2022/08/20 00:49:29;;;;;;;2.50;1.40;;;;;;;25.35;56.78;100627.66;5075525;28;20464;-72
2022/08/20 00:52:02;;;;;;;2.25;1.45;;;;;;;25.36;56.76;100632.94;5076529;28;20045;-71
2022/08/20 00:54:44;;;;;;;3.42;1.50;;;;;;;25.35;56.68;100628.50;5075613;28;20049;-72
2022/08/20 00:57:15;;;;;;;1.80;1.30;;;;;;;25.35;56.52;100622.25;5076652;28;20052;-72
2022/08/20 00:59:43;;;;;;;3.53;1.80;;;;;;;25.36;56.68;100629.34;5076173;28;20055;-72
2022/08/20 01:02:14;;;;;;;2.70;1.98;;;;;;;25.36;56.78;100623.94;5076298;28;20071;-72
2022/08/20 01:04:49;;;;;;;2.30;1.70;;;;;;;25.36;56.71;100621.22;5075494;28;20064;-72
2022/08/20 01:07:19;;;;;;;2.42;1.30;;;;;;;25.37;56.52;100621.06;5076495;28;20051;-72
2022/08/20 01:09:47;;;;;;;2.33;1.38;;;;;;;25.38;56.29;100621.91;5076427;28;20060;-72
2022/08/20 01:12:27;;;;;;;4.70;1.60;;;;;;;25.36;56.59;100613.09;5076120;28;20040;-72
2022/08/20 01:14:58;;;;;;;2.10;1.48;;;;;;;25.37;56.66;100617.50;5074409;28;20052;-72
2022/08/20 01:17:28;;;;;;;2.38;1.70;;;;;;;25.38;56.72;100625.44;5076050;28;20040;-71
2022/08/20 01:20:40;;;;;;;2.25;1.33;;;;;;;25.39;56.50;100620.88;5074393;28;20053;-72
2022/08/20 01:23:28;;;;;;;2.17;1.40;;;;;;;25.39;56.73;100620.88;5053799;28;20057;-72
2022/08/20 01:26:02;;;;;;;3.55;1.85;;;;;;;25.40;56.71;100622.56;5053780;28;20053;-72
2022/08/20 01:28:41;;;;;;;2.45;1.40;;;;;;;25.39;56.55;100612.75;5037148;28;20064;-72
2022/08/20 01:31:13;;;;;;;2.05;1.38;;;;;;;25.38;56.61;100617.31;5053728;28;20045;-72
2022/08/20 01:33:40;;;;;;;3.13;1.57;;;;;;;25.40;56.78;100617.13;5053381;28;20087;-72
2022/08/20 01:36:12;;;;;;;2.75;1.67;;;;;;;25.40;56.71;100626.13;5053025;28;20053;-72
2022/08/20 01:38:40;;;;;;;2.75;1.67;;;;;;;25.40;56.66;100627.97;5053556;28;20053;-72
2022/08/20 01:41:35;;;;;;;2.03;1.48;;;;;;;25.40;56.49;100617.13;5053749;28;20053;-71
2022/08/20 01:44:02;;;;;;;3.50;1.93;;;;;;;25.42;56.45;100616.97;5053016;28;20543;-72
2022/08/20 01:46:36;;;;;;;3.20;1.80;;;;;;;25.42;56.53;100616.97;5053372;28;20064;-72
2022/08/20 01:49:15;;;;;;;4.32;1.50;;;;;;;25.41;56.43;100610.72;5052810;28;20060;-72
2022/08/20 01:51:52;;;;;;;2.17;1.38;;;;;;;25.41;56.48;100610.72;5052927;28;20400;-72
2022/08/20 01:54:21;;;;;;;3.40;1.65;;;;;;;25.41;56.36;100608.00;5035081;28;20048;-72
2022/08/20 01:56:55;;;;;;;3.17;1.60;;;;;;;25.40;56.44;100609.88;5052923;28;20052;-72
2022/08/20 01:59:23;;;;;;;3.97;1.98;;;;;;;25.41;56.33;100616.13;5063410;28;20075;-71
2022/08/20 02:01:51;;;;;;;2.65;1.73;;;;;;;25.41;56.36;100626.97;5074405;28;20037;-72
2022/08/20 02:04:20;;;;;;;2.67;1.60;;;;;;;25.41;56.45;100624.25;5074288;28;20064;-72
2022/08/20 02:06:57;;;;;;;3.22;1.55;;;;;;;25.41;56.39;100616.13;5073332;28;20053;-72
2022/08/20 02:09:29;;;;;;;3.35;1.90;;;;;;;25.41;56.42;100616.13;5074970;28;20056;-72
2022/08/20 02:11:57;;;;;;;2.57;1.60;;;;;;;25.42;56.33;100620.53;5074574;28;20574;-72
2022/08/20 02:14:26;;;;;;;3.47;1.80;;;;;;;25.42;56.41;100628.66;5074544;28;20045;-71
2022/08/20 02:16:57;;;;;;;2.95;1.80;;;;;;;25.43;56.37;100640.34;5074656;28;20051;-72
2022/08/20 02:19:41;;;;;;;4.40;1.58;;;;;;;25.43;56.34;100634.91;5074525;28;20399;-72
2022/08/20 02:22:19;;;;;;;3.75;2.03;;;;;;;25.42;56.41;100628.66;5074717;28;20041;-72
2022/08/20 02:24:47;;;;;;;3.72;1.85;;;;;;;25.42;56.45;100625.94;5074712;28;20419;-72
2022/08/20 02:27:15;;;;;;;2.53;1.67;;;;;;;25.42;56.16;100627.81;5072965;28;20044;-72
2022/08/20 02:29:42;;;;;;;2.78;1.48;;;;;;;25.44;56.12;100631.16;5074041;28;20044;-72
2022/08/20 02:32:10;;;;;;;3.28;1.83;;;;;;;25.43;56.14;100622.19;5073933;28;20044;-72
2022/08/20 02:34:58;;;;;;;4.28;1.83;;;;;;;25.43;56.13;100618.66;5074828;28;20049;-72
2022/08/20 02:37:27;;;;;;;2.72;1.67;;;;;;;25.43;56.18;100622.19;5073913;28;20067;-72
2022/08/20 02:39:54;;;;;;;2.22;1.40;;;;;;;25.43;55.99;100615.94;5074266;28;20071;-72
2022/08/20 02:42:21;;;;;;;2.25;1.60;;;;;;;25.43;56.16;100607.81;5072377;28;20049;-72
2022/08/20 02:44:49;;;;;;;2.40;1.30;;;;;;;25.43;56.05;100607.81;5073773;28;20049;-72
2022/08/20 02:47:16;;;;;;;4.07;1.60;;;;;;;25.44;55.93;100612.19;5072874;28;20402;-71
2022/08/20 02:49:43;;;;;;;4.47;1.83;;;;;;;25.43;56.03;100603.22;5074298;28;20055;-72
2022/08/20 02:52:11;;;;;;;3.40;1.33;;;;;;;25.44;56.13;100599.50;5074098;28;20052;-72
2022/08/20 02:54:38;;;;;;;2.75;1.67;;;;;;;25.44;55.91;100596.78;5073703;28;20052;-72
2022/08/20 02:57:12;;;;;;;5.50;1.77;;;;;;;25.44;56.02;100594.06;5073605;28;20048;-72
2022/08/20 02:59:39;;;;;;;3.10;1.63;;;;;;;25.45;55.92;100592.22;5074073;28;20049;-72
2022/08/20 03:02:07;;;;;;;2.30;1.85;;;;;;;25.44;55.98;100590.53;5073448;28;20036;-72
2022/08/20 03:04:34;;;;;;;2.50;1.50;;;;;;;25.45;55.90;100590.38;5073471;28;20060;-71
2022/08/20 03:07:03;;;;;;;2.45;1.88;;;;;;;25.46;55.91;100592.03;5073510;28;20385;-71
2022/08/20 03:09:31;;;;;;;2.40;1.60;;;;;;;25.45;55.81;100589.53;5073480;28;20048;-71
2022/08/20 03:11:59;;;;;;;3.03;1.67;;;;;;;25.45;55.72;100603.06;5073452;28;20041;-71
2022/08/20 03:14:27;;;;;;;4.00;1.67;;;;;;;25.45;55.96;100593.06;5073338;28;20045;-72
2022/08/20 03:16:54;;;;;;;2.42;1.65;;;;;;;25.45;55.85;100589.53;5073587;28;20495;-71
2022/08/20 03:19:22;;;;;;;2.97;1.60;;;;;;;25.45;55.90;100590.38;5072184;28;20472;-71
2022/08/20 03:21:49;;;;;;;2.28;1.50;;;;;;;25.45;55.93;100587.66;5072700;28;20055;-72
2022/08/20 03:24:17;;;;;;;2.83;2.08;;;;;;;25.45;55.82;100584.09;5073827;28;20044;-72
2022/08/20 03:26:44;;;;;;;2.70;1.60;;;;;;;25.45;55.87;100584.94;5073360;28;20052;-71
2022/08/20 03:29:12;;;;;;;2.97;1.73;;;;;;;25.44;55.95;100575.09;5073220;28;20045;-72
2022/08/20 03:31:39;;;;;;;5.45;1.90;;;;;;;25.45;56.03;100582.22;5073785;28;20036;-71
2022/08/20 03:34:07;;;;;;;4.43;1.70;;;;;;;25.46;55.82;100574.94;5073270;28;20111;-72
2022/08/20 03:36:34;;;;;;;4.05;2.17;;;;;;;25.46;56.00;100585.78;5073805;28;20063;-72
2022/08/20 03:39:05;;;;;;;2.25;1.48;;;;;;;25.45;55.99;100574.09;5073456;28;20040;-71
2022/08/20 03:41:32;;;;;;;3.80;1.75;;;;;;;25.45;56.16;100581.38;5073165;28;20049;-71
2022/08/20 03:44:00;;;;;;;4.68;1.35;;;;;;;25.44;56.24;100575.09;5073514;28;20051;-72
2022/08/20 03:46:27;;;;;;;4.55;2.20;;;;;;;25.46;56.08;100586.63;5073417;28;20044;-71
2022/08/20 03:48:55;;;;;;;3.53;2.00;;;;;;;25.46;56.12;100592.03;5073681;28;20080;-71
2022/08/20 03:51:29;;;;;;;4.05;1.65;;;;;;;25.47;55.95;100588.31;5073661;28;20053;-72
2022/08/20 03:53:56;;;;;;;3.15;1.58;;;;;;;25.45;56.03;100584.09;5073028;28;20404;-72
2022/08/20 03:56:24;;;;;;;2.90;1.90;;;;;;;25.45;56.31;100584.09;5073319;28;20041;-72
2022/08/20 03:58:52;;;;;;;2.38;1.80;;;;;;;25.42;56.44;100590.72;5072967;28;20048;-72
2022/08/20 04:01:20;;;;;;;2.83;1.83;;;;;;;25.38;56.37;100592.09;5071792;28;20078;-72
2022/08/20 04:04:07;;;;;;;3.00;1.80;;;;;;;25.35;56.40;100597.84;5073092;28;20416;-72
2022/08/20 04:06:40;;;;;;;2.63;2.25;;;;;;;25.33;56.71;100597.19;5073288;28;20048;-72
2022/08/20 04:09:10;;;;;;;4.03;1.88;;;;;;;25.30;56.35;100613.81;5073198;28;20406;-72
2022/08/20 04:11:40;;;;;;;3.13;2.00;;;;;;;25.28;56.54;100607.69;5071602;28;20048;-71
2022/08/20 04:14:08;;;;;;;4.05;2.10;;;;;;;25.24;56.56;100607.25;5072794;28;20051;-71
2022/08/20 04:16:39;;;;;;;4.28;2.15;;;;;;;25.23;56.35;100610.94;5073652;28;20052;-71
2022/08/20 04:19:07;;;;;;;4.90;2.28;;;;;;;25.22;56.75;100609.25;5072782;28;20407;-72
2022/08/20 04:21:35;;;;;;;2.47;2.00;;;;;;;25.22;56.56;100613.84;5071793;28;20059;-72
2022/08/20 04:24:04;;;;;;;4.40;2.13;;;;;;;25.21;56.22;100612.16;5072856;28;20044;-71
2022/08/20 04:26:35;;;;;;;2.95;1.67;;;;;;;25.20;56.36;100619.44;5072416;28;20071;-71
2022/08/20 04:29:03;;;;;;;4.28;2.45;;;;;;;25.20;56.31;100618.56;5072768;28;20060;-71
2022/08/20 04:31:33;;;;;;;3.08;2.03;;;;;;;25.19;56.04;100617.75;5075898;28;20052;-72
2022/08/20 04:34:03;;;;;;;3.97;2.38;;;;;;;25.19;56.05;100616.91;5077097;28;20044;-72
2022/08/20 04:36:31;;;;;;;4.38;2.03;;;;;;;25.18;56.04;100612.50;5076520;28;20051;-71
2022/08/20 04:38:58;;;;;;;5.00;2.28;;;;;;;25.18;56.04;100612.50;5076995;28;20491;-71
2022/08/20 04:41:25;;;;;;;3.80;2.28;;;;;;;25.17;55.88;100621.66;5074950;28;20041;-71
2022/08/20 04:43:55;;;;;;;3.45;2.30;;;;;;;25.17;55.87;100617.09;5076395;28;20357;-71
2022/08/20 04:46:26;;;;;;;4.20;2.28;;;;;;;25.16;55.82;100612.69;5076596;28;20051;-72
2022/08/20 04:48:55;;;;;;;4.75;2.40;;;;;;;25.14;55.61;100610.13;5076872;28;20055;-72
2022/08/20 04:51:22;;;;;;;3.60;2.00;;;;;;;25.13;55.78;100608.47;5074998;28;20408;-72
2022/08/20 04:53:52;;;;;;;3.25;1.90;;;;;;;25.14;55.81;100610.13;5076456;28;20043;-72
2022/08/20 04:56:22;;;;;;;4.80;1.95;;;;;;;25.14;55.63;100620.97;5076354;28;20044;-72
2022/08/20 04:58:53;;;;;;;3.75;2.10;;;;;;;25.13;55.34;100622.00;5074622;28;20411;-71
2022/08/20 05:01:24;;;;;;;4.18;1.95;;;;;;;25.13;55.36;100622.00;5076412;28;20040;-72
2022/08/20 05:03:53;;;;;;;3.38;2.25;;;;;;;25.12;55.77;100624.91;5074463;28;20056;-71
2022/08/20 05:06:27;;;;;;;3.28;2.30;;;;;;;25.13;55.35;100621.16;5075620;28;20048;-72
2022/08/20 05:08:57;;;;;;;3.30;2.38;;;;;;;25.13;55.25;100626.59;5076207;28;20051;-72
2022/08/20 05:11:25;;;;;;;3.30;2.33;;;;;;;25.14;55.28;100620.13;5075646;28;20040;-72
2022/08/20 05:14:07;;;;;;;2.83;2.10;;;;;;;25.10;55.31;100619.63;5075840;28;20048;-71
2022/08/20 05:16:39;;;;;;;3.05;2.63;;;;;;;25.10;55.51;100624.22;5075923;28;20044;-72
2022/08/20 05:19:10;;;;;;;2.50;2.10;;;;;;;25.08;55.43;100627.06;5076150;28;20067;-72
2022/08/20 05:21:38;;;;;;;3.45;2.30;;;;;;;25.08;55.65;100632.50;5075608;28;20407;-71
2022/08/20 05:24:06;;;;;;;2.75;2.22;;;;;;;25.08;55.47;100634.38;5075220;28;20051;-72
2022/08/20 05:26:34;;;;;;;5.18;2.33;;;;;;;25.07;55.47;100627.22;5074106;28;20040;-72
2022/08/20 05:29:03;;;;;;;2.58;1.88;;;;;;;25.06;55.32;100631.81;5075355;28;20048;-72
2022/08/20 05:31:33;;;;;;;3.38;2.30;;;;;;;25.05;55.41;100638.25;5075473;28;20055;-71
2022/08/20 05:34:08;;;;;;;3.22;2.47;;;;;;;25.05;55.24;100632.84;5074788;28;20040;-72
2022/08/20 05:36:39;;;;;;;3.35;2.17;;;;;;;25.05;55.28;100637.41;5075209;28;20052;-72
2022/08/20 05:39:08;;;;;;;4.88;2.40;;;;;;;25.05;55.04;100634.72;5073909;28;20045;-72
2022/08/20 05:41:37;;;;;;;4.22;2.92;;;;;;;25.04;55.10;100633.03;5074459;28;20047;-72
2022/08/20 05:44:09;;;;;;;2.92;2.22;;;;;;;25.03;54.97;100637.56;5075350;28;20033;-72
2022/08/20 05:46:40;;;;;;;4.50;2.53;;;;;;;25.04;55.01;100633.03;5075485;28;20048;-72
2022/08/20 05:49:09;;;;;;;3.05;2.17;;;;;;;25.04;55.20;100631.16;5075422;28;20396;-72
2022/08/20 05:51:37;;;;;;;4.03;2.08;;;;;;;25.04;55.38;100636.56;5073638;28;20388;-72
2022/08/20 05:54:06;;;;;;;3.17;2.40;;;;;;;25.05;54.93;100638.25;5073508;28;20044;-72
2022/08/20 05:56:34;;;;;;;3.22;2.10;;;;;;;25.06;55.41;100642.66;5074664;28;20047;-72
2022/08/20 05:59:03;;;;;;;3.58;2.03;;;;;;;25.06;55.58;100639.94;5075210;28;20048;-72
2022/08/20 06:01:32;;;;;;;4.13;2.20;;;;;;;25.07;55.57;100638.91;5074554;28;20509;-72
2022/08/20 06:06:47;;;;;;;3.30;2.30;;;;;;;25.09;55.92;100636.06;5075365;28;20045;-71
2022/08/20 06:09:16;;;;;;;3.25;2.33;;;;;;;25.09;55.80;100636.06;5074861;28;20052;-72
2022/08/20 06:12:01;;;;;;;4.55;2.55;;;;;;;25.10;55.54;100641.31;5058217;28;20049;-72
2022/08/20 06:14:29;;;;;;;2.78;2.00;;;;;;;25.11;55.67;100640.28;5075165;28;20041;-72
2022/08/20 06:17:02;;;;;;;4.18;2.30;;;;;;;25.11;55.53;100636.72;5072933;28;20040;-72
2022/08/20 06:19:31;;;;;;;3.67;2.15;;;;;;;25.12;55.87;100639.28;5074364;28;20049;-72
2022/08/20 06:22:00;;;;;;;3.30;2.22;;;;;;;25.14;55.66;100633.69;5074753;28;20050;-71
2022/08/20 06:24:27;;;;;;;3.00;1.77;;;;;;;25.14;55.78;100641.81;5072615;28;20056;-72
2022/08/20 06:27:00;;;;;;;3.80;2.13;;;;;;;25.15;55.92;100649.75;5074659;28;20051;-71
2022/08/20 06:29:28;;;;;;;5.05;2.30;;;;;;;25.15;55.94;100649.75;5074905;28;20075;-72
2022/08/20 06:31:56;;;;;;;3.17;1.98;;;;;;;25.18;55.92;100647.72;5074002;28;20047;-72
2022/08/20 06:34:26;;;;;;;3.00;1.80;;;;;;;25.18;56.19;100643.16;5073926;28;20040;-71
2022/08/20 06:36:55;;;;;;;2.88;1.77;;;;;;;25.18;55.93;100637.72;5072944;28;20071;-72
2022/08/20 06:39:24;;;;;;;5.22;2.10;;;;;;;25.21;55.80;100641.97;5074434;28;20041;-72
2022/08/20 06:41:52;;;;;;;3.22;1.90;;;;;;;25.20;55.96;100640.25;5072918;28;20053;-72
2022/08/20 06:44:21;;;;;;;3.00;1.90;;;;;;;25.21;55.84;100644.69;5074118;28;20476;-72
2022/08/20 06:46:48;;;;;;;3.45;1.77;;;;;;;25.22;56.16;100646.34;5073748;28;20488;-71
2022/08/20 06:49:16;;;;;;;2.42;1.70;;;;;;;25.22;55.89;100646.34;5073655;28;20396;-72
2022/08/20 06:51:43;;;;;;;2.33;1.60;;;;;;;25.23;55.96;100642.63;5074336;28;20045;-72
2022/08/20 06:54:16;;;;;;;2.30;1.60;;;;;;;25.24;56.08;100649.72;5073440;28;20044;-72
2022/08/20 06:56:43;;;;;;;5.25;1.80;;;;;;;25.25;55.98;100643.31;5073653;28;20506;-72
2022/08/20 06:59:10;;;;;;;2.38;1.63;;;;;;;25.26;55.83;100637.69;5074171;28;20048;-72
2022/08/20 07:01:38;;;;;;;2.97;1.80;;;;;;;25.28;56.03;100645.63;5072580;28;20048;-72
2022/08/20 07:04:07;;;;;;;3.22;1.80;;;;;;;25.28;55.67;100638.38;5073489;28;20052;-72
2022/08/20 07:06:34;;;;;;;2.20;1.70;;;;;;;25.28;55.96;100643.81;5072572;28;20049;-72
2022/08/20 07:09:02;;;;;;;3.63;1.60;;;;;;;25.30;55.90;100646.31;5074049;28;20056;-72
2022/08/20 07:11:29;;;;;;;3.92;1.50;;;;;;;25.30;55.97;100638.19;5073796;28;20048;-72
2022/08/20 07:13:57;;;;;;;2.35;1.45;;;;;;;25.30;55.94;100636.31;5073895;28;20037;-72
2022/08/20 07:16:26;;;;;;;3.13;1.98;;;;;;;25.33;55.89;100629.72;5073480;28;20044;-72
2022/08/20 07:18:53;;;;;;;4.40;1.88;;;;;;;25.33;56.01;100632.44;5073933;28;20055;-72
2022/08/20 07:21:20;;;;;;;3.05;2.10;;;;;;;25.35;55.98;100633.09;5073592;28;20044;-71
2022/08/20 07:23:48;;;;;;;3.22;1.60;;;;;;;25.34;55.88;100626.81;5073851;28;20049;-72
2022/08/20 07:26:16;;;;;;;2.90;1.70;;;;;;;25.37;56.09;100633.75;5073823;28;20052;-72
2022/08/20 07:28:44;;;;;;;2.97;1.70;;;;;;;25.38;56.09;100630.03;5073373;28;20408;-72
2022/08/20 07:34:02;;;;;;;2.40;1.90;;;;;;;25.37;54.56;100633.75;5074108;28;20051;-71
2022/08/20 07:36:29;;;;;;;2.47;1.70;;;;;;;25.33;54.11;100641.41;5073530;28;20051;-72
2022/08/20 07:38:57;;;;;;;2.10;1.60;;;;;;;25.29;53.87;100642.78;5073226;28;20075;-72
2022/08/20 07:41:24;;;;;;;3.28;1.75;;;;;;;25.29;53.44;100639.22;5072908;28;20040;-73
2022/08/20 07:43:51;;;;;;;3.63;1.65;;;;;;;25.28;54.06;100640.22;5073646;28;20353;-72
2022/08/20 07:46:20;;;;;;;7.88;2.20;;;;;;;25.28;53.96;100637.50;5073296;28;20044;-72
2022/08/20 07:48:50;;;;;;;5.32;2.17;;;;;;;25.28;54.00;100642.94;5073655;28;20051;-72
2022/08/20 07:51:19;;;;;;;3.28;2.03;;;;;;;25.27;54.12;100636.66;5073210;28;20044;-72
2022/08/20 07:53:48;;;;;;;2.25;1.73;;;;;;;25.28;53.97;100640.22;5073664;28;20415;-72
2022/08/20 07:56:18;;;;;;;2.35;1.70;;;;;;;25.26;53.50;100653.94;5072420;28;20062;-72
2022/08/20 07:58:49;;;;;;;2.83;1.98;;;;;;;25.27;53.50;100650.22;5073748;28;20071;-72
2022/08/20 08:01:19;;;;;;;5.38;2.00;;;;;;;25.28;53.70;100651.06;5073438;28;20049;-72
2022/08/20 08:03:47;;;;;;;2.58;1.80;;;;;;;25.28;53.51;100654.63;5073218;28;20048;-72
2022/08/20 08:06:22;;;;;;;4.43;2.10;;;;;;;25.29;52.93;100652.78;5076851;28;20492;-72
2022/08/20 08:09:01;;;;;;;2.95;1.73;;;;;;;25.30;52.53;100662.56;5077535;28;20040;-72
2022/08/20 08:11:32;;;;;;;1.95;1.52;;;;;;;25.30;52.33;100665.28;5077570;28;20055;-72
2022/08/20 08:14:00;;;;;;;5.10;2.00;;;;;;;25.31;52.52;100666.97;5077281;28;20392;-72
2022/08/20 08:16:29;;;;;;;3.00;1.92;;;;;;;25.32;52.26;100668.66;5076544;28;20403;-72
2022/08/20 08:18:57;;;;;;;3.28;2.00;;;;;;;25.33;52.54;100664.94;5077022;28;20041;-72
2022/08/20 08:21:25;;;;;;;2.55;1.73;;;;;;;25.33;52.41;100662.25;5076498;28;20036;-72
2022/08/20 08:23:52;;;;;;;3.20;1.70;;;;;;;25.34;52.49;100672.88;5076669;28;20036;-72
2022/08/20 08:26:20;;;;;;;4.15;2.25;;;;;;;25.35;52.18;100673.72;5076685;28;20055;-72
2022/08/20 08:28:48;;;;;;;3.17;1.70;;;;;;;25.34;51.74;100672.88;5076900;28;20484;-72
2022/08/20 08:31:15;;;;;;;4.07;1.88;;;;;;;25.35;51.52;100674.56;5075651;28;20048;-72
2022/08/20 08:33:42;;;;;;;2.53;1.73;;;;;;;25.36;51.44;100680.84;5076392;28;20041;-72
2022/08/20 08:36:13;;;;;;;4.10;2.20;;;;;;;25.36;51.56;100680.84;5075035;28;20052;-72
2022/08/20 08:38:43;;;;;;;2.85;1.90;;;;;;;25.37;51.32;100677.97;5075435;28;20372;-71
2022/08/20 08:41:16;;;;;;;3.67;1.90;;;;;;;25.37;51.81;100680.69;5076557;28;20434;-72
2022/08/20 08:43:46;;;;;;;2.75;2.08;;;;;;;25.39;51.95;100680.50;5076485;28;20051;-73
2022/08/20 08:46:21;;;;;;;3.80;1.83;;;;;;;25.40;52.09;100684.88;5075363;28;20047;-72
2022/08/20 08:48:52;;;;;;;3.33;1.88;;;;;;;25.40;52.25;100688.47;5075382;28;20487;-72
2022/08/20 08:51:28;;;;;;;4.90;1.85;;;;;;;25.42;52.38;100690.16;5076485;28;20044;-72
2022/08/20 08:53:56;;;;;;;2.80;2.05;;;;;;;25.41;52.40;100686.59;5075948;28;20056;-72
2022/08/20 08:56:28;;;;;;;2.90;2.08;;;;;;;25.44;52.43;100688.09;5075931;28;20044;-72
2022/08/20 08:59:03;;;;;;;4.57;1.85;;;;;;;25.44;52.43;100691.63;5075877;28;20075;-72
2022/08/20 09:01:33;;;;;;;2.35;1.83;;;;;;;25.45;52.22;100689.81;5076058;28;20055;-71
2022/08/20 09:04:22;;;;;;;3.80;1.98;;;;;;;25.47;52.20;100694.00;5075728;28;20053;-71
2022/08/20 09:06:53;;;;;;;2.50;1.40;;;;;;;25.46;52.57;100695.03;5075669;28;20057;-71
2022/08/20 09:09:30;;;;;;;3.67;2.00;;;;;;;25.48;52.72;100701.13;5075359;28;20049;-72
2022/08/20 09:12:08;;;;;;;4.85;2.10;;;;;;;25.48;52.62;100703.84;5075839;28;20048;-72
2022/08/20 09:14:36;;;;;;;2.40;1.90;;;;;;;25.48;52.21;100698.44;5074641;28;20041;-71
2022/08/20 09:17:05;;;;;;;3.72;1.80;;;;;;;25.49;52.03;100694.69;5074928;28;20045;-71
2022/08/20 09:19:32;;;;;;;2.70;2.13;;;;;;;25.50;51.96;100690.94;5075731;28;20396;-72
2022/08/20 09:22:07;;;;;;;4.22;1.80;;;;;;;25.51;52.18;100698.06;5075928;28;20051;-71
2022/08/20 09:24:37;;;;;;;2.40;1.73;;;;;;;25.51;52.12;100698.06;5075778;28;20045;-71
2022/08/20 09:27:05;;;;;;;2.15;1.70;;;;;;;25.52;52.22;100699.78;5074228;28;20433;-72
2022/08/20 09:29:33;;;;;;;2.58;1.90;;;;;;;25.54;52.46;100696.88;5075199;28;20048;-71
2022/08/20 09:32:22;;;;;;;2.50;1.80;;;;;;;25.54;52.49;100705.84;5075084;28;20048;-72
2022/08/20 09:34:55;;;;;;;3.28;1.80;;;;;;;25.55;52.17;100703.97;5074173;28;20048;-73
2022/08/20 09:37:25;;;;;;;3.50;2.00;;;;;;;25.59;52.09;100702.59;5075632;28;20376;-72
2022/08/20 09:39:53;;;;;;;4.07;1.90;;;;;;;25.64;52.37;100698.34;5074028;28;20055;-73
2022/08/20 09:42:24;;;;;;;7.15;2.55;;;;;;;25.69;52.31;100699.69;5074044;28;20052;-71
2022/08/20 09:44:51;;;;;;;2.38;1.92;;;;;;;25.70;52.22;100702.22;5075414;28;20483;-71
2022/08/20 09:47:19;;;;;;;3.45;1.88;;;;;;;25.72;52.51;100700.16;5075219;28;20055;-71
2022/08/20 09:49:47;;;;;;;4.82;1.80;;;;;;;25.73;52.65;100695.59;5075386;28;20048;-70
2022/08/20 09:52:30;;;;;;;2.75;1.80;;;;;;;25.71;52.31;100690.34;5074110;28;20063;-71
2022/08/20 09:55:06;;;;;;;3.85;1.98;;;;;;;25.74;52.37;100702.72;5075235;28;20040;-72
2022/08/20 09:57:34;;;;;;;5.80;2.10;;;;;;;25.75;52.31;100693.53;5073594;28;20059;-72
2022/08/20 10:00:15;;;;;;;2.45;1.83;;;;;;;25.75;52.42;100688.13;5074608;28;20048;-70
2022/08/20 10:02:43;;;;;;;2.80;1.88;;;;;;;25.76;52.26;100684.38;5073188;28;20059;-71
2022/08/20 10:05:11;;;;;;;4.22;1.88;;;;;;;25.76;51.83;100681.66;5075035;28;20467;-74
2022/08/20 10:07:39;;;;;;;2.10;1.63;;;;;;;25.76;52.14;100685.22;5073688;28;20483;-70
2022/08/20 10:10:10;;;;;;;2.20;1.70;;;;;;;25.77;52.15;100683.38;5074449;28;20502;-70
2022/08/20 10:12:37;;;;;;;2.70;1.85;;;;;;;25.76;51.93;100674.38;5075211;28;20036;-70
2022/08/20 10:15:05;;;;;;;3.80;2.03;;;;;;;25.77;52.06;100673.41;5075031;28;20423;-71
2022/08/20 10:17:36;;;;;;;4.53;2.28;;;;;;;25.79;53.22;100679.47;5074825;28;20048;-71
2022/08/20 10:20:04;;;;;;;3.58;2.50;;;;;;;25.80;52.92;100674.91;5074777;28;20045;-71
2022/08/20 10:22:31;;;;;;;3.78;1.92;;;;;;;25.81;51.56;100671.19;5074618;28;20383;-72
2022/08/20 10:24:59;;;;;;;3.13;1.90;;;;;;;25.82;51.45;100676.41;5072929;28;20059;-71
2022/08/20 10:27:26;;;;;;;5.75;1.95;;;;;;;25.83;51.70;100671.84;5074652;28;20052;-74
2022/08/20 10:29:53;;;;;;;3.83;2.00;;;;;;;25.84;51.19;100657.25;5074124;28;20388;-70
2022/08/20 10:32:21;;;;;;;3.13;1.90;;;;;;;25.85;51.60;100667.94;5074033;28;20052;-71
2022/08/20 10:34:48;;;;;;;2.85;1.52;;;;;;;25.83;51.60;100656.41;5074522;28;20044;-72
2022/08/20 10:37:18;;;;;;;3.72;1.80;;;;;;;25.83;49.96;100652.84;5074781;28;20044;-71
2022/08/20 10:39:46;;;;;;;4.18;1.63;;;;;;;25.83;50.60;100652.84;5074575;28;20044;-71
2022/08/20 10:42:14;;;;;;;2.55;1.85;;;;;;;25.81;50.34;100658.47;5073808;28;20040;-72
2022/08/20 10:44:42;;;;;;;3.13;1.98;;;;;;;25.82;49.92;100662.03;5073988;28;20056;-71
2022/08/20 10:47:20;;;;;;;4.63;1.67;;;;;;;25.82;50.57;100660.16;5073829;28;20048;-71
2022/08/20 10:49:49;;;;;;;3.10;1.38;;;;;;;25.81;50.77;100660.34;5074252;28;20049;-71
2022/08/20 10:52:17;;;;;;;2.92;1.67;;;;;;;25.81;51.07;100657.63;5073786;28;20041;-71
2022/08/20 10:54:45;;;;;;;4.30;1.95;;;;;;;25.80;51.00;100650.50;5073929;28;20049;-71
2022/08/20 10:57:15;;;;;;;3.05;1.70;;;;;;;25.79;50.53;100655.06;5073662;28;20071;-71
2022/08/20 10:59:44;;;;;;;2.67;1.88;;;;;;;25.79;50.66;100648.81;5074102;28;20059;-73
2022/08/20 11:02:12;;;;;;;4.07;1.80;;;;;;;25.79;50.54;100646.94;5072856;28;20048;-71
2022/08/20 11:04:40;;;;;;;4.10;1.58;;;;;;;25.79;50.43;100644.22;5073861;28;20400;-71
2022/08/20 11:07:14;;;;;;;2.08;1.73;;;;;;;25.79;49.61;100646.94;5073839;28;20060;-71
2022/08/20 11:09:42;;;;;;;;;;;;;;;25.79;50.26;100641.53;5074034;28;20216;-71
2022/08/20 11:12:10;;;;;;;2.63;1.67;;;;;;;25.81;50.23;100635.94;5073677;28;19921;-71
2022/08/20 11:14:37;;;;;;;3.78;2.22;;;;;;;25.80;50.60;100636.94;5073928;28;20502;-72
2022/08/20 11:17:06;;;;;;;4.15;2.00;;;;;;;25.81;50.58;100627.81;5074116;28;20350;-71
2022/08/20 11:19:41;;;;;;;2.47;1.92;;;;;;;25.81;50.51;100634.06;5072283;28;20047;-71
2022/08/20 11:22:10;;;;;;;3.63;1.98;;;;;;;25.82;50.57;100634.91;5073953;28;20052;-71
2022/08/20 11:24:37;;;;;;;6.60;1.92;;;;;;;25.82;50.44;100634.91;5072821;28;20044;-72
2022/08/20 11:27:06;;;;;;;5.00;1.67;;;;;;;25.82;50.05;100630.31;5074099;28;20048;-72
2022/08/20 11:29:36;;;;;;;3.67;1.77;;;;;;;25.82;50.55;100633.03;5073262;28;20049;-71
2022/08/20 11:32:05;;;;;;;4.10;1.70;;;;;;;25.83;50.34;100636.59;5073553;28;20538;-71
2022/08/20 11:34:33;;;;;;;2.50;1.92;;;;;;;25.83;50.24;100633.88;5073340;28;20052;-71
2022/08/20 11:37:00;;;;;;;3.72;2.20;;;;;;;25.84;50.25;100635.56;5073370;28;20040;-71
2022/08/20 11:39:27;;;;;;;2.60;1.80;;;;;;;25.83;50.32;100636.59;5075070;28;20399;-71
2022/08/20 11:41:55;;;;;;;3.65;2.80;;;;;;;25.84;49.99;100635.56;5076705;28;20048;-71
2022/08/20 11:44:22;;;;;;;3.30;1.70;;;;;;;25.85;49.91;100629.13;5077329;28;20048;-71